Time;durP1;ratioP1;P1;durP2;ratioP2;P2;SDS_P1;SDS_P2;PMS_P1;PMS_P2;Temp;Humidity;BMP_temperature;BMP_pressure;BME280_temperature;BME280_humidity;BME280_pressure;Samples;Min_cycle;Max_cycle;Signal;HPM_P1;HPM_P2
2022/04/18 00:01:49;;;;;;;94.82;44.28;;;7.80;99.90;;;;;;5014831;28;20049;-79
2022/04/18 00:04:15;;;;;;;99.80;45.58;;;7.80;99.90;;;;;;4998736;28;20045;-80
2022/04/18 00:06:41;;;;;;;97.53;44.03;;;7.70;99.90;;;;;;5014223;28;20376;-79
2022/04/18 00:09:07;;;;;;;88.50;41.58;;;7.70;99.90;;;;;;5015008;28;20048;-79
2022/04/18 00:11:33;;;;;;;64.13;32.65;;;7.70;99.90;;;;;;5014403;28;20541;-80
2022/04/18 00:13:59;;;;;;;44.42;23.25;;;7.60;99.90;;;;;;5013871;28;20042;-80
2022/04/18 00:16:25;;;;;;;36.08;20.10;;;7.60;99.90;;;;;;5014153;28;20049;-79
2022/04/18 00:18:52;;;;;;;34.88;21.50;;;7.60;99.90;;;;;;5013105;28;20144;-80
2022/04/18 00:21:19;;;;;;;27.45;17.67;;;7.60;99.90;;;;;;4997576;28;20050;-79
2022/04/18 00:23:44;;;;;;;24.60;14.18;;;7.60;99.90;;;;;;5014228;28;20100;-79
2022/04/18 00:26:10;;;;;;;19.85;12.63;;;7.60;99.90;;;;;;5013598;28;20054;-79
2022/04/18 00:28:36;;;;;;;16.38;12.13;;;7.60;99.90;;;;;;5013621;28;20049;-79
2022/04/18 00:31:02;;;;;;;17.23;11.07;;;7.50;99.90;;;;;;4981341;28;20046;-79
2022/04/18 00:33:28;;;;;;;20.15;12.70;;;7.50;99.90;;;;;;5013792;28;20101;-80
2022/04/18 00:35:55;;;;;;;17.05;12.15;;;7.50;99.90;;;;;;5013975;28;20087;-79
2022/04/18 00:38:22;;;;;;;19.85;12.30;;;7.40;99.90;;;;;;5013613;28;20052;-79
2022/04/18 00:40:48;;;;;;;17.15;11.93;;;7.40;99.90;;;;;;4997237;28;20046;-80
2022/04/18 00:43:14;;;;;;;17.60;12.05;;;7.40;99.90;;;;;;5013645;28;20069;-79
2022/04/18 00:45:40;;;;;;;19.13;11.40;;;7.40;99.90;;;;;;5013594;28;20057;-80
2022/04/18 00:48:06;;;;;;;16.67;11.07;;;7.30;99.90;;;;;;5013226;28;20122;-80
2022/04/18 00:50:34;;;;;;;17.27;11.23;;;7.30;99.90;;;;;;5013759;28;20383;-80
2022/04/18 00:53:02;;;;;;;16.95;11.38;;;7.20;99.90;;;;;;5013186;28;20062;-79
2022/04/18 00:55:28;;;;;;;16.00;11.15;;;7.30;99.90;;;;;;4997280;28;20046;-80
2022/04/18 00:57:55;;;;;;;20.42;11.55;;;7.30;99.90;;;;;;5014409;28;20050;-79
2022/04/18 01:00:24;;;;;;;16.17;11.15;;;7.20;99.90;;;;;;5013253;28;20434;-80
2022/04/18 01:02:51;;;;;;;15.98;11.00;;;7.20;99.90;;;;;;5014252;28;20444;-79
2022/04/18 01:05:17;;;;;;;17.55;10.35;;;7.10;99.90;;;;;;5015000;28;20050;-80
2022/04/18 01:07:43;;;;;;;16.80;10.80;;;7.20;99.90;;;;;;5013180;28;20502;-79
2022/04/18 01:10:09;;;;;;;18.70;10.60;;;7.40;99.90;;;;;;5013182;28;20046;-79
2022/04/18 01:12:35;;;;;;;16.45;10.63;;;7.20;99.90;;;;;;5013134;28;20137;-79
2022/04/18 01:15:01;;;;;;;13.88;9.98;;;7.20;99.90;;;;;;4996764;28;20092;-80
2022/04/18 01:17:27;;;;;;;15.32;10.93;;;7.20;99.90;;;;;;4996955;28;20131;-80
2022/04/18 01:19:53;;;;;;;16.58;10.85;;;7.20;99.90;;;;;;5013792;28;20495;-80
2022/04/18 01:22:19;;;;;;;16.08;11.00;;;7.20;99.90;;;;;;5013454;28;20144;-80
2022/04/18 01:30:15;;;;;;;15.98;10.65;;;7.10;99.90;;;;;;5013599;28;20131;-80
2022/04/18 01:32:41;;;;;;;14.50;10.13;;;7.10;99.90;;;;;;5012770;28;20455;-80
2022/04/18 01:35:07;;;;;;;16.65;10.00;;;7.00;99.90;;;;;;5013143;28;20475;-79
2022/04/18 01:37:36;;;;;;;14.45;9.35;;;7.00;99.90;;;;;;5012674;28;20501;-80
2022/04/18 01:40:04;;;;;;;15.52;9.25;;;7.00;99.90;;;;;;5012759;28;20049;-80
2022/04/18 01:42:30;;;;;;;13.73;9.25;;;7.00;99.90;;;;;;5013203;28;20069;-80
2022/04/18 01:44:56;;;;;;;12.63;9.63;;;6.90;99.90;;;;;;4980984;28;20054;-80
2022/04/18 01:47:22;;;;;;;13.82;9.15;;;6.90;99.90;;;;;;5012708;28;20054;-80
2022/04/18 01:49:48;;;;;;;16.00;9.95;;;6.90;99.90;;;;;;5012938;28;20132;-80
2022/04/18 01:52:15;;;;;;;16.85;9.90;;;6.90;99.90;;;;;;5012469;28;20057;-80
2022/04/18 01:54:41;;;;;;;13.15;9.65;;;6.80;99.90;;;;;;5012892;28;20053;-80
2022/04/18 01:57:06;;;;;;;14.52;10.00;;;6.80;99.90;;;;;;5013976;28;20069;-80
2022/04/18 01:59:32;;;;;;;18.45;11.20;;;6.80;99.90;;;;;;5012237;28;20048;-80
2022/04/18 02:01:58;;;;;;;30.17;16.52;;;6.70;99.90;;;;;;5013418;28;20085;-80
2022/04/18 02:04:23;;;;;;;38.10;21.08;;;6.70;99.90;;;;;;4996282;28;20108;-80
2022/04/18 02:06:49;;;;;;;39.45;20.40;;;6.70;99.90;;;;;;5013171;28;20103;-80
2022/04/18 02:09:15;;;;;;;45.15;21.48;;;6.70;99.90;;;;;;5012675;28;20053;-80
2022/04/18 02:11:41;;;;;;;36.85;19.73;;;6.90;99.90;;;;;;5012198;28;20053;-80
2022/04/18 02:14:06;;;;;;;47.55;22.90;;;6.50;99.90;;;;;;5012351;28;20125;-80
2022/04/18 02:16:32;;;;;;;51.35;23.63;;;6.50;99.90;;;;;;5012607;28;20386;-80
2022/04/18 02:18:58;;;;;;;49.58;24.08;;;6.70;99.90;;;;;;4996107;28;20073;-80
2022/04/18 02:21:23;;;;;;;52.50;23.38;;;6.40;99.90;;;;;;5012133;28;20050;-80
2022/04/18 02:23:49;;;;;;;51.47;24.38;;;6.50;99.90;;;;;;4995958;28;20116;-80
2022/04/18 02:26:15;;;;;;;41.80;20.05;;;6.40;99.90;;;;;;5013226;28;20046;-80
2022/04/18 02:28:41;;;;;;;36.17;18.55;;;6.40;99.90;;;;;;4995979;28;20475;-80
2022/04/18 02:31:08;;;;;;;43.08;20.70;;;6.40;99.90;;;;;;5012333;28;20050;-80
2022/04/18 02:33:34;;;;;;;41.28;19.00;;;6.40;99.90;;;;;;5012242;28;20049;-80
2022/04/18 02:36:02;;;;;;;34.08;18.02;;;6.40;99.90;;;;;;5011994;28;20505;-80
2022/04/18 02:38:28;;;;;;;26.15;13.43;;;6.40;99.90;;;;;;4997060;28;20085;-80
2022/04/18 02:40:55;;;;;;;19.08;11.73;;;6.40;99.90;;;;;;5013209;28;20609;-80
2022/04/18 02:43:21;;;;;;;24.25;12.65;;;6.30;99.90;;;;;;5015566;28;20056;-80
2022/04/18 02:45:47;;;;;;;19.35;14.18;;;6.40;99.90;;;;;;5015873;28;20046;-80
2022/04/18 02:48:13;;;;;;;16.90;10.63;;;6.30;99.90;;;;;;5016491;28;20085;-80
2022/04/18 02:50:38;;;;;;;14.30;10.07;;;6.30;99.90;;;;;;5015598;28;20054;-80
2022/04/18 02:53:08;;;;;;;18.05;9.73;;;6.20;99.90;;;;;;5015530;28;20491;-80
2022/04/18 02:55:33;;;;;;;11.02;8.95;;;6.20;99.90;;;;;;5015632;28;20417;-80
2022/04/18 02:57:59;;;;;;;14.85;9.73;;;6.20;99.90;;;;;;5016316;28;20050;-80
2022/04/18 03:00:25;;;;;;;15.95;9.45;;;6.20;99.90;;;;;;4982685;28;20056;-80
2022/04/18 03:02:51;;;;;;;15.23;9.73;;;6.70;99.90;;;;;;5016285;28;20097;-80
2022/04/18 03:05:16;;;;;;;14.93;9.27;;;6.50;99.90;;;;;;5015417;28;20475;-80
2022/04/18 03:07:42;;;;;;;13.52;8.75;;;6.20;99.90;;;;;;4998860;28;20042;-80
2022/04/18 03:10:08;;;;;;;13.43;9.63;;;6.20;99.90;;;;;;5015451;28;20152;-80
2022/04/18 03:12:35;;;;;;;12.07;9.18;;;6.20;99.90;;;;;;4998932;28;20057;-80
2022/04/18 03:15:01;;;;;;;12.57;8.25;;;6.30;99.90;;;;;;5015521;28;20128;-80
2022/04/18 03:17:26;;;;;;;12.35;7.97;;;6.10;99.90;;;;;;5015028;28;20050;-80
2022/04/18 03:19:55;;;;;;;11.63;8.63;;;6.20;99.90;;;;;;5015848;28;20038;-80
2022/04/18 03:22:21;;;;;;;16.05;9.88;;;6.10;99.90;;;;;;4983384;28;20089;-80
2022/04/18 03:24:47;;;;;;;13.73;8.90;;;6.00;99.90;;;;;;5015877;28;20100;-80
2022/04/18 03:27:12;;;;;;;14.50;8.98;;;6.00;99.90;;;;;;5014821;28;20475;-80
2022/04/18 03:29:38;;;;;;;12.43;8.95;;;6.00;99.90;;;;;;5015041;28;20060;-80
2022/04/18 03:32:05;;;;;;;12.80;8.63;;;6.00;99.90;;;;;;4998708;28;20065;-80
2022/04/18 03:34:31;;;;;;;15.70;9.32;;;5.90;99.90;;;;;;5015677;28;20092;-80
2022/04/18 03:39:50;;;;;;;13.88;10.13;;;5.90;99.90;;;;;;5001095;28;20240;-80
2022/04/18 03:42:16;;;;;;;17.13;10.20;;;5.80;99.90;;;;;;5015184;28;20092;-80
2022/04/18 03:44:44;;;;;;;16.35;9.75;;;5.80;99.90;;;;;;5014625;28;20058;-80
2022/04/18 03:47:15;;;;;;;19.42;9.88;;;5.80;99.90;;;;;;5014389;28;20048;-80
2022/04/18 03:49:42;;;;;;;16.10;9.73;;;5.80;99.90;;;;;;5014628;28;20061;-80
2022/04/18 03:52:08;;;;;;;18.23;10.05;;;5.70;99.90;;;;;;5014343;28;20053;-80
2022/04/18 03:54:35;;;;;;;14.07;9.43;;;5.80;99.90;;;;;;5012702;28;20144;-80
2022/04/18 03:57:04;;;;;;;12.52;8.75;;;5.80;99.90;;;;;;5014354;28;20061;-80
2022/04/18 03:59:30;;;;;;;12.15;8.93;;;5.80;99.90;;;;;;5014471;28;20045;-80
2022/04/18 04:01:55;;;;;;;13.68;7.85;;;5.80;99.90;;;;;;5014102;28;20041;-80
2022/04/18 04:04:21;;;;;;;14.00;9.60;;;5.80;99.90;;;;;;4997998;28;20107;-81
2022/04/18 04:06:47;;;;;;;13.85;8.38;;;5.90;99.90;;;;;;4998108;28;20057;-81
2022/04/18 04:09:13;;;;;;;13.38;8.73;;;5.80;99.90;;;;;;5014204;28;20053;-80
2022/04/18 04:11:38;;;;;;;14.07;8.82;;;5.80;99.90;;;;;;5014234;28;20062;-80
2022/04/18 04:14:04;;;;;;;11.68;8.32;;;5.80;99.90;;;;;;5014183;28;20177;-80
2022/04/18 04:16:30;;;;;;;11.90;9.05;;;5.80;99.90;;;;;;5014102;28;20096;-80
2022/04/18 04:18:56;;;;;;;14.25;9.43;;;5.80;99.90;;;;;;4997386;28;20049;-80
2022/04/18 04:21:22;;;;;;;13.75;9.02;;;5.80;99.90;;;;;;4997809;28;20057;-80
2022/04/18 04:23:47;;;;;;;14.32;9.00;;;5.70;99.90;;;;;;4997667;28;20054;-80
2022/04/18 04:26:13;;;;;;;12.18;8.55;;;5.70;99.90;;;;;;5013776;28;20081;-80
2022/04/18 04:28:39;;;;;;;13.30;8.35;;;5.90;99.90;;;;;;5014630;28;20099;-81
2022/04/18 04:31:05;;;;;;;11.38;8.23;;;5.70;99.90;;;;;;5013940;28;20045;-80
2022/04/18 04:33:31;;;;;;;14.85;8.95;;;5.70;99.90;;;;;;5013515;28;20053;-80
2022/04/18 04:36:00;;;;;;;12.45;8.60;;;5.60;99.90;;;;;;4997412;28;20095;-80
2022/04/18 04:38:26;;;;;;;12.88;8.70;;;5.90;99.90;;;;;;5014034;28;20379;-81
2022/04/18 04:40:53;;;;;;;11.77;8.07;;;5.70;99.90;;;;;;5013486;28;20042;-81
2022/04/18 04:43:20;;;;;;;13.23;8.75;;;5.70;99.90;;;;;;4998127;28;20101;-81
2022/04/18 04:45:46;;;;;;;11.45;8.43;;;5.70;99.90;;;;;;4997261;28;20500;-80
2022/04/18 04:48:11;;;;;;;12.05;8.55;;;5.70;99.90;;;;;;5013553;28;20042;-80
2022/04/18 04:50:39;;;;;;;11.25;8.60;;;5.70;99.90;;;;;;5013174;28;20077;-80
2022/04/18 04:53:05;;;;;;;12.77;8.95;;;5.80;99.90;;;;;;4997684;28;20378;-80
2022/04/18 04:55:31;;;;;;;11.68;8.18;;;5.80;99.90;;;;;;5014089;28;20046;-81
2022/04/18 04:57:57;;;;;;;14.20;9.52;;;6.10;99.90;;;;;;5013414;28;20053;-81
2022/04/18 05:00:24;;;;;;;15.60;9.23;;;5.80;99.90;;;;;;5013030;28;20045;-81
2022/04/18 05:02:50;;;;;;;13.13;9.02;;;5.80;99.90;;;;;;5014323;28;20116;-81
2022/04/18 05:05:15;;;;;;;13.38;8.52;;;5.70;99.90;;;;;;5013664;28;20050;-81
2022/04/18 05:07:41;;;;;;;14.32;9.23;;;5.80;99.90;;;;;;4996968;28;20124;-81
2022/04/18 05:10:07;;;;;;;24.73;22.23;;;5.80;99.90;;;;;;5013524;28;20042;-80
2022/04/18 05:12:33;;;;;;;13.30;10.50;;;5.80;99.90;;;;;;4997139;28;20148;-80
2022/04/18 05:15:06;;;;;;;12.90;8.48;;;5.90;99.90;;;;;;5013160;28;20546;-81
2022/04/18 05:17:31;;;;;;;12.40;9.10;;;5.90;99.90;;;;;;5013077;28;20061;-81
2022/04/18 05:19:57;;;;;;;13.70;8.95;;;6.00;99.90;;;;;;4996990;28;20057;-80
2022/04/18 05:22:23;;;;;;;9.75;8.05;;;6.00;99.90;;;;;;4980302;28;20053;-80
2022/04/18 05:24:49;;;;;;;14.43;8.88;;;6.10;99.90;;;;;;5013194;28;20084;-80
2022/04/18 05:27:16;;;;;;;11.70;7.80;;;6.20;99.90;;;;;;5012820;28;20056;-80
2022/04/18 05:29:44;;;;;;;12.75;8.23;;;6.20;99.90;;;;;;4996706;28;20049;-80
2022/04/18 05:32:11;;;;;;;12.40;8.73;;;6.30;99.90;;;;;;5013146;28;20054;-80
2022/04/18 05:34:37;;;;;;;11.25;7.85;;;6.30;99.90;;;;;;4997300;28;20098;-80
2022/04/18 05:37:04;;;;;;;11.32;7.97;;;6.40;99.90;;;;;;4996515;28;20104;-80
2022/04/18 05:39:30;;;;;;;13.65;8.55;;;6.40;99.90;;;;;;5013009;28;20082;-80
2022/04/18 05:41:58;;;;;;;11.50;8.38;;;6.70;99.90;;;;;;5012577;28;20042;-79
2022/04/18 05:44:25;;;;;;;12.07;8.15;;;6.50;99.90;;;;;;5012700;28;20046;-80
2022/04/18 05:46:51;;;;;;;13.77;8.57;;;6.60;99.90;;;;;;5013382;28;20554;-80
2022/04/18 05:49:16;;;;;;;14.85;8.60;;;6.60;99.90;;;;;;5013609;28;20162;-80
2022/04/18 05:51:42;;;;;;;11.18;7.80;;;6.70;99.90;;;;;;5012605;28;20085;-79
2022/04/18 05:54:09;;;;;;;12.68;8.05;;;6.70;99.90;;;;;;5012636;28;20123;-80
2022/04/18 05:56:35;;;;;;;13.05;8.95;;;6.80;99.90;;;;;;5012513;28;20402;-80
2022/04/18 05:59:01;;;;;;;12.15;8.75;;;6.80;99.90;;;;;;5013981;28;20049;-80
2022/04/18 06:01:28;;;;;;;12.52;8.23;;;6.90;99.90;;;;;;4996035;28;20053;-80
2022/04/18 06:03:55;;;;;;;13.32;8.95;;;7.00;99.90;;;;;;5012533;28;20064;-79
2022/04/18 06:06:21;;;;;;;11.23;8.02;;;7.00;99.90;;;;;;5012468;28;20053;-79
2022/04/18 06:08:47;;;;;;;13.23;8.45;;;7.10;99.90;;;;;;5012515;28;20054;-79
2022/04/18 06:11:13;;;;;;;12.68;8.27;;;7.10;99.90;;;;;;5012465;28;20056;-79
2022/04/18 06:13:39;;;;;;;12.02;8.25;;;7.20;99.90;;;;;;5012582;28;20093;-80
2022/04/18 06:16:05;;;;;;;10.52;7.88;;;7.30;99.90;;;;;;5013024;28;20053;-80
2022/04/18 06:18:31;;;;;;;10.63;8.30;;;7.30;99.90;;;;;;5016971;28;20049;-79
2022/04/18 06:20:57;;;;;;;11.18;7.95;;;7.50;99.90;;;;;;4999899;28;20038;-79
2022/04/18 06:23:23;;;;;;;11.18;7.80;;;7.50;99.90;;;;;;5016236;28;20088;-79
2022/04/18 06:25:49;;;;;;;12.30;7.90;;;7.60;99.90;;;;;;5016104;28;20108;-79
2022/04/18 06:28:15;;;;;;;10.23;6.95;;;7.70;99.90;;;;;;5016966;28;20050;-78
2022/04/18 06:30:41;;;;;;;15.70;9.32;;;7.90;99.90;;;;;;5016140;28;20046;-79
2022/04/18 06:33:12;;;;;;;11.50;7.55;;;7.90;99.90;;;;;;5016319;28;20042;-79
2022/04/18 06:35:38;;;;;;;12.20;8.68;;;8.00;99.90;;;;;;5015700;28;20053;-79
2022/04/18 06:38:05;;;;;;;15.38;7.35;;;8.10;99.90;;;;;;5016221;28;20116;-80
2022/04/18 06:40:31;;;;;;;10.65;6.90;;;8.20;99.90;;;;;;5015826;28;20132;-80
2022/04/18 06:42:57;;;;;;;9.88;7.10;;;8.30;99.90;;;;;;4984083;28;20157;-80
2022/04/18 06:45:24;;;;;;;10.63;6.97;;;8.50;99.90;;;;;;5015876;28;20049;-79
2022/04/18 06:47:49;;;;;;;10.90;7.50;;;8.60;99.90;;;;;;5016574;28;20107;-77
2022/04/18 06:50:15;;;;;;;9.75;6.32;;;8.80;99.90;;;;;;5016677;28;20503;-76
2022/04/18 06:52:51;;;;;;;11.85;7.03;;;8.90;99.90;;;;;;5015744;28;20099;-76
2022/04/18 06:55:17;;;;;;;10.25;6.40;;;9.10;99.90;;;;;;5016712;28;20057;-77
2022/04/18 06:57:43;;;;;;;8.25;6.43;;;9.20;99.90;;;;;;4983172;28;20050;-78
2022/04/18 07:00:09;;;;;;;8.43;6.20;;;9.30;99.90;;;;;;5015271;28;20049;-76
2022/04/18 07:02:35;;;;;;;9.20;6.50;;;9.50;99.90;;;;;;5016011;28;20131;-77
2022/04/18 07:05:01;;;;;;;9.80;6.07;;;9.50;99.90;;;;;;5016909;28;20101;-77
2022/04/18 07:07:27;;;;;;;10.55;7.07;;;9.60;99.90;;;;;;5016394;28;20495;-77
2022/04/18 07:09:52;;;;;;;9.40;6.25;;;9.80;99.90;;;;;;5016329;28;20045;-78
2022/04/18 07:12:22;;;;;;;9.27;5.80;;;9.80;99.90;;;;;;5015909;28;20121;-77
2022/04/18 07:14:48;;;;;;;8.35;6.22;;;10.00;99.90;;;;;;5015229;28;20344;-77
2022/04/18 07:17:14;;;;;;;9.32;6.47;;;10.10;99.90;;;;;;5015250;28;20046;-77
2022/04/18 07:19:40;;;;;;;7.20;5.28;;;10.30;99.90;;;;;;5016219;28;20565;-77
2022/04/18 07:22:06;;;;;;;9.43;6.28;;;10.40;99.90;;;;;;5015748;28;20049;-77
2022/04/18 07:24:32;;;;;;;8.00;5.47;;;10.50;99.90;;;;;;5015807;28;20054;-76
2022/04/18 07:27:00;;;;;;;11.48;5.90;;;10.60;99.90;;;;;;5014946;28;20100;-78
2022/04/18 07:29:29;;;;;;;9.43;6.25;;;10.60;99.90;;;;;;5013636;28;20140;-81
2022/04/18 07:31:55;;;;;;;9.65;5.85;;;10.70;99.90;;;;;;5015623;28;20373;-77
2022/04/18 07:34:21;;;;;;;9.60;6.55;;;10.90;99.90;;;;;;5015790;28;20042;-78
2022/04/18 07:36:47;;;;;;;9.55;5.88;;;10.90;99.90;;;;;;5015784;28;20149;-78
2022/04/18 07:39:13;;;;;;;7.80;5.60;;;11.00;99.90;;;;;;5015641;28;20076;-80
2022/04/18 07:41:39;;;;;;;7.93;5.93;;;11.00;99.90;;;;;;5015506;28;20129;-79
2022/04/18 07:44:05;;;;;;;10.35;6.63;;;11.10;99.90;;;;;;5016199;28;20140;-79
2022/04/18 07:46:31;;;;;;;8.00;5.75;;;11.20;99.90;;;;;;5015389;28;20053;-79
2022/04/18 07:48:56;;;;;;;8.27;6.13;;;11.30;99.90;;;;;;5014779;28;20375;-78
2022/04/18 07:54:12;;;;;;;9.20;5.75;;;11.50;99.90;;;;;;5015460;28;20053;-81
2022/04/18 07:56:38;;;;;;;8.23;5.53;;;11.60;99.90;;;;;;5014642;28;20058;-82
2022/04/18 07:59:05;;;;;;;10.38;5.93;;;11.80;99.90;;;;;;5015789;28;20057;-79
2022/04/18 08:01:32;;;;;;;8.55;5.45;;;11.90;99.90;;;;;;5016039;28;20049;-80
2022/04/18 08:04:01;;;;;;;8.18;5.55;;;12.00;99.90;;;;;;5014669;28;20112;-82
2022/04/18 08:06:28;;;;;;;8.93;5.68;;;12.10;99.90;;;;;;5015181;28;20443;-81
2022/04/18 08:08:54;;;;;;;9.10;6.43;;;12.20;99.90;;;;;;5014809;28;20069;-80
2022/04/18 08:11:20;;;;;;;8.63;6.03;;;12.30;99.90;;;;;;5013846;28;20042;-81
2022/04/18 08:13:47;;;;;;;13.48;6.25;;;12.40;99.90;;;;;;5014880;28;20054;-81
2022/04/18 08:16:13;;;;;;;7.82;5.07;;;12.60;99.90;;;;;;5014072;28;20042;-80
2022/04/18 08:18:42;;;;;;;8.05;4.88;;;12.60;99.90;;;;;;5013804;28;20096;-79
2022/04/18 08:21:08;;;;;;;9.10;4.85;;;12.80;99.90;;;;;;5013839;28;20085;-78
2022/04/18 08:23:35;;;;;;;8.02;5.03;;;12.80;99.90;;;;;;5013957;28;20088;-78
2022/04/18 08:26:02;;;;;;;7.60;4.93;;;12.90;99.90;;;;;;5014593;28;20196;-78
2022/04/18 08:28:28;;;;;;;7.82;5.00;;;13.10;99.90;;;;;;5014077;28;20080;-78
2022/04/18 08:30:54;;;;;;;7.82;4.90;;;13.20;99.90;;;;;;4997198;28;20057;-77
2022/04/18 08:33:20;;;;;;;8.68;4.95;;;13.20;99.90;;;;;;5013718;28;20045;-77
2022/04/18 08:35:46;;;;;;;7.63;5.40;;;13.30;99.90;;;;;;5013891;28;20054;-79
2022/04/18 08:38:12;;;;;;;6.13;4.50;;;13.40;99.90;;;;;;5013382;28;20403;-80
2022/04/18 08:40:42;;;;;;;6.28;4.75;;;13.60;99.90;;;;;;5013972;28;20505;-79
2022/04/18 08:43:08;;;;;;;6.97;4.60;;;13.70;99.90;;;;;;5014559;28;20057;-81
2022/04/18 08:45:36;;;;;;;6.68;4.43;;;13.80;99.90;;;;;;5014995;28;20046;-81
2022/04/18 08:53:31;;;;;;;6.20;5.22;;;14.10;99.90;;;;;;5012614;28;20111;-81
2022/04/18 08:55:59;;;;;;;8.75;5.43;;;14.30;99.90;;;;;;5013361;28;20430;-81
2022/04/18 08:58:26;;;;;;;6.32;4.43;;;14.20;99.90;;;;;;5012517;28;20376;-78
2022/04/18 09:00:54;;;;;;;8.07;4.90;;;14.30;99.90;;;;;;5012248;28;20052;-77
2022/04/18 09:03:19;;;;;;;7.93;5.88;;;14.40;99.90;;;;;;5012298;28;20049;-80
2022/04/18 09:05:46;;;;;;;7.68;4.93;;;14.50;99.90;;;;;;5013614;28;20078;-78
2022/04/18 09:08:12;;;;;;;7.07;4.68;;;14.60;99.90;;;;;;4996137;28;20053;-77
2022/04/18 09:10:39;;;;;;;7.82;4.55;;;14.70;99.90;;;;;;5012238;28;20081;-78
2022/04/18 09:13:11;;;;;;;7.30;4.82;;;14.90;99.90;;;;;;5012910;28;20050;-78
2022/04/18 09:15:49;;;;;;;7.28;5.00;;;15.00;99.90;;;;;;5013227;28;20100;-77
2022/04/18 09:18:17;;;;;;;7.00;4.55;;;15.00;99.90;;;;;;5012758;28;20368;-77
2022/04/18 09:20:45;;;;;;;6.75;4.45;;;15.20;99.90;;;;;;5012413;28;20049;-77
2022/04/18 09:23:23;;;;;;;7.50;5.05;;;15.30;99.90;;;;;;5013027;28;20052;-77
2022/04/18 09:26:10;;;;;;;5.55;4.13;;;15.50;99.90;;;;;;5011478;28;20052;-79
2022/04/18 09:28:40;;;;;;;6.95;4.25;;;15.50;99.90;;;;;;5013012;28;20046;-77
2022/04/18 09:31:08;;;;;;;6.82;4.15;;;15.40;99.90;;;;;;4995959;28;20046;-77
2022/04/18 09:33:37;;;;;;;6.97;4.30;;;15.40;99.90;;;;;;5013016;28;20052;-76
2022/04/18 09:36:32;;;;;;;7.18;4.60;;;15.50;99.90;;;;;;5011949;28;20088;-78
2022/04/18 09:38:58;;;;;;;6.88;4.53;;;15.80;99.90;;;;;;5009030;28;20101;-76
2022/04/18 09:41:29;;;;;;;6.35;4.50;;;16.00;99.90;;;;;;5011694;28;20085;-77
2022/04/18 09:43:55;;;;;;;8.07;4.88;;;16.00;99.90;;;;;;5012753;28;20045;-77
2022/04/18 09:46:22;;;;;;;9.90;5.05;;;16.10;99.90;;;;;;5012095;28;20136;-77
2022/04/18 09:48:50;;;;;;;6.22;4.80;;;16.10;99.90;;;;;;5012732;28;20052;-77
2022/04/18 09:51:27;;;;;;;7.10;4.68;;;16.20;99.90;;;;;;5010596;28;20093;-77
2022/04/18 09:53:54;;;;;;;7.30;4.82;;;16.60;99.90;;;;;;4993754;28;529374;-77
2022/04/18 09:56:22;;;;;;;7.47;5.00;;;16.50;99.90;;;;;;5021341;28;20141;-78
2022/04/18 09:58:48;;;;;;;6.93;4.80;;;16.30;99.60;;;;;;5012485;28;20054;-76
2022/04/18 10:01:16;;;;;;;6.72;4.40;;;16.40;99.40;;;;;;5012133;28;20517;-76
2022/04/18 10:03:43;;;;;;;8.60;5.35;;;16.40;98.60;;;;;;5012418;28;20053;-76
2022/04/18 10:06:10;;;;;;;7.70;4.63;;;16.50;98.40;;;;;;5012285;28;20060;-76
2022/04/18 10:08:37;;;;;;;6.50;4.97;;;16.60;99.00;;;;;;5013349;28;20513;-76
2022/04/18 10:11:04;;;;;;;7.18;4.90;;;16.80;99.90;;;;;;5013150;28;20107;-76
2022/04/18 10:13:31;;;;;;;6.05;4.53;;;17.00;99.90;;;;;;5012966;28;20049;-77
2022/04/18 10:15:59;;;;;;;8.07;5.28;;;17.20;99.90;;;;;;5013370;28;20089;-77
2022/04/18 10:18:25;;;;;;;7.38;4.57;;;17.30;99.00;;;;;;5013255;28;20055;-76
2022/04/18 10:21:06;;;;;;;6.93;4.60;;;17.20;98.20;;;;;;5012223;28;20463;-76
2022/04/18 10:23:38;;;;;;;6.25;4.35;;;17.30;97.90;;;;;;5013851;28;20054;-79
2022/04/18 10:26:41;;;;;;;7.15;4.40;;;17.30;96.80;;;;;;5011788;28;20107;-76
2022/04/18 10:29:18;;;;;;;6.70;4.63;;;17.30;96.40;;;;;;5012363;28;20053;-76
2022/04/18 10:31:45;;;;;;;5.43;3.88;;;17.40;96.10;;;;;;5013871;28;20050;-78
2022/04/18 10:34:14;;;;;;;5.80;3.60;;;17.50;95.80;;;;;;5012148;28;20128;-77
2022/04/18 10:36:50;;;;;;;6.30;3.60;;;17.70;96.30;;;;;;5013072;28;20474;-77
2022/04/18 10:39:16;;;;;;;6.65;3.85;;;17.90;96.80;;;;;;5012137;28;20058;-78
2022/04/18 10:41:44;;;;;;;5.35;3.63;;;18.10;97.30;;;;;;4995228;28;20049;-77
2022/04/18 10:44:10;;;;;;;4.65;3.58;;;18.20;95.60;;;;;;5013825;28;20474;-77
2022/04/18 10:47:03;;;;;;;4.65;3.10;;;18.20;95.50;;;;;;5013045;28;20089;-79
2022/04/18 10:49:31;;;;;;;5.47;3.25;;;18.30;95.60;;;;;;5011846;28;20052;-77
2022/04/18 10:52:05;;;;;;;5.50;3.80;;;18.40;94.30;;;;;;5013424;28;20081;-78
2022/04/18 10:54:31;;;;;;;5.65;3.53;;;18.50;94.80;;;;;;5013162;28;20054;-80
2022/04/18 10:57:02;;;;;;;5.20;3.92;;;18.50;93.10;;;;;;5012819;28;20062;-78
2022/04/18 10:59:32;;;;;;;5.95;3.63;;;18.50;92.40;;;;;;5011632;28;20103;-79
2022/04/18 11:02:01;;;;;;;5.55;3.58;;;18.50;91.90;;;;;;5011401;28;20046;-77
2022/04/18 11:04:43;;;;;;;5.13;3.72;;;18.50;91.80;;;;;;5016235;28;20503;-78
2022/04/18 11:07:11;;;;;;;4.78;3.25;;;18.70;92.70;;;;;;5015765;28;20053;-78
2022/04/18 11:09:45;;;;;;;6.38;3.40;;;18.80;91.40;;;;;;5015605;28;20050;-77
2022/04/18 11:12:13;;;;;;;4.88;3.38;;;18.80;93.10;;;;;;5015488;28;20046;-78
2022/04/18 11:14:55;;;;;;;4.97;3.40;;;19.00;92.60;;;;;;5016025;28;20364;-79
2022/04/18 11:17:32;;;;;;;4.40;3.10;;;18.90;90.30;;;;;;5016182;28;20049;-78
2022/04/18 11:20:34;;;;;;;3.78;2.85;;;18.90;89.30;;;;;;5015159;28;20048;-78
2022/04/18 11:23:22;;;;;;;5.13;4.00;;;18.90;89.90;;;;;;5015973;28;20077;-78
2022/04/18 11:25:49;;;;;;;5.43;3.50;;;18.90;88.40;;;;;;5014860;28;20089;-78
2022/04/18 11:28:16;;;;;;;5.38;3.55;;;19.00;89.50;;;;;;4998594;28;20049;-77
2022/04/18 11:30:42;;;;;;;4.60;3.45;;;19.00;86.30;;;;;;5014916;28;20376;-78
2022/04/18 11:33:07;;;;;;;6.32;3.97;;;18.90;87.80;;;;;;5014709;28;20103;-77
2022/04/18 11:35:34;;;;;;;4.22;3.45;;;18.90;86.90;;;;;;5014632;28;20061;-78
2022/04/18 11:38:10;;;;;;;5.35;3.20;;;19.00;84.10;;;;;;5015798;28;20067;-78
2022/04/18 11:40:37;;;;;;;4.53;3.30;;;19.00;86.50;;;;;;5015016;28;20042;-78
2022/04/18 11:43:15;;;;;;;4.53;3.08;;;19.00;84.40;;;;;;4998290;28;20050;-78
2022/04/18 11:45:41;;;;;;;6.97;3.70;;;19.00;84.50;;;;;;5014630;28;20077;-78
2022/04/18 11:48:07;;;;;;;4.55;3.00;;;19.10;87.40;;;;;;5014360;28;20092;-78
2022/04/18 11:50:37;;;;;;;5.18;3.33;;;19.10;83.90;;;;;;5014539;28;20053;-78
2022/04/18 11:53:05;;;;;;;4.68;3.35;;;19.00;82.00;;;;;;5014536;28;20132;-80
2022/04/18 11:55:31;;;;;;;5.15;3.55;;;18.90;82.70;;;;;;5014162;28;20054;-79
2022/04/18 11:57:57;;;;;;;5.10;3.47;;;19.00;84.10;;;;;;5015456;28;20061;-77
2022/04/18 12:08:46;;;;;;;5.32;3.33;;;19.70;86.40;;;;;;5001229;28;20291;-78
2022/04/18 12:11:12;;;;;;;4.60;3.40;;;19.80;83.90;;;;;;5014079;28;20050;-78
2022/04/18 12:13:45;;;;;;;4.47;3.30;;;19.90;84.90;;;;;;5013558;28;20088;-78
2022/04/18 12:16:11;;;;;;;5.07;3.45;;;19.90;84.00;;;;;;5013828;28;20054;-78
2022/04/18 12:18:37;;;;;;;6.57;3.70;;;20.00;86.10;;;;;;5015098;28;20097;-78
2022/04/18 12:21:03;;;;;;;5.68;3.60;;;20.20;84.00;;;;;;5014903;28;20085;-77
2022/04/18 12:23:30;;;;;;;4.88;3.45;;;20.20;82.10;;;;;;5013925;28;20050;-78
2022/04/18 12:25:57;;;;;;;5.25;3.40;;;20.20;81.10;;;;;;5013927;28;20137;-76
2022/04/18 12:28:25;;;;;;;4.60;3.50;;;20.40;81.00;;;;;;5015390;28;20050;-77
2022/04/18 12:30:51;;;;;;;4.45;3.15;;;20.60;81.20;;;;;;5014766;28;20041;-76
2022/04/18 12:33:25;;;;;;;4.80;3.35;;;20.70;81.60;;;;;;5015015;28;20046;-77
2022/04/18 12:35:52;;;;;;;5.97;3.78;;;20.70;80.90;;;;;;5013966;28;20479;-78
2022/04/18 12:38:20;;;;;;;5.03;3.58;;;20.80;79.40;;;;;;5014244;28;20518;-79
2022/04/18 12:40:56;;;;;;;4.90;3.53;;;21.00;79.60;;;;;;5014610;28;20081;-79
2022/04/18 12:43:37;;;;;;;5.80;3.60;;;21.30;80.30;;;;;;5012993;28;20469;-79
2022/04/18 12:46:10;;;;;;;5.80;3.78;;;21.60;79.50;;;;;;5014604;28;20046;-78
2022/04/18 12:48:38;;;;;;;4.95;3.53;;;22.00;80.10;;;;;;5014615;28;20046;-78
2022/04/18 12:51:06;;;;;;;5.15;3.42;;;22.20;80.10;;;;;;5014435;28;20037;-80
2022/04/18 12:53:44;;;;;;;5.20;3.47;;;22.40;78.30;;;;;;5014354;28;20058;-79
2022/04/18 12:56:10;;;;;;;3.88;2.80;;;22.70;75.90;;;;;;5014257;28;20104;-78
2022/04/18 12:58:41;;;;;;;3.90;2.90;;;22.80;76.30;;;;;;4997012;28;20041;-79
2022/04/18 13:01:07;;;;;;;5.28;3.20;;;23.10;76.80;;;;;;5013507;28;20056;-79
2022/04/18 13:03:44;;;;;;;4.68;3.33;;;23.10;73.90;;;;;;5013193;28;20054;-79
2022/04/18 13:06:11;;;;;;;3.88;3.15;;;22.80;68.20;;;;;;5013971;28;20052;-78
2022/04/18 13:08:38;;;;;;;5.57;3.42;;;22.60;68.10;;;;;;5014136;28;20041;-78
2022/04/18 13:11:05;;;;;;;4.65;3.50;;;22.70;69.20;;;;;;5013094;28;20164;-79
2022/04/18 13:13:31;;;;;;;4.07;2.95;;;23.10;69.90;;;;;;5013091;28;20050;-80